Aviation Digital Data Service (ADDS)

Output produced by TAFs form (0557 UTC 18 January 2018)
found at http://www.aviationweather.gov/adds/tafs/
 
KRNH 180520Z 1806/1906 22006KT P6SM SKC 
     FM181000 22005KT P6SM BKN150 
     FM181400 24008KT P6SM SKC